sensor_id;sensor_type;location;lat;lon;timestamp;pressure;altitude;pressure_sealevel;temperature;humidity
63287;BME280;49410;55.708;37.522;2023-02-10T00:01:04;100459.38;;;-1.48;nan
63287;BME280;49410;55.708;37.522;2023-02-10T00:03:32;100467.94;;;-1.39;nan
63287;BME280;49410;55.708;37.522;2023-02-10T00:05:57;100472.66;;;-1.45;nan
63287;BME280;49410;55.708;37.522;2023-02-10T00:08:23;100463.59;;;-1.42;nan
63287;BME280;49410;55.708;37.522;2023-02-10T00:10:48;100464.44;;;-1.42;nan
63287;BME280;49410;55.708;37.522;2023-02-10T00:13:14;100455.09;;;-1.33;nan
63287;BME280;49410;55.708;37.522;2023-02-10T00:15:39;100452.50;;;-1.34;nan
63287;BME280;49410;55.708;37.522;2023-02-10T00:18:05;100425.81;;;-1.57;nan
63287;BME280;49410;55.708;37.522;2023-02-10T00:20:30;100429.16;;;-1.51;nan
63287;BME280;49410;55.708;37.522;2023-02-10T00:22:56;100442.91;;;-1.40;nan
63287;BME280;49410;55.708;37.522;2023-02-10T00:25:21;100441.03;;;-1.38;nan
63287;BME280;49410;55.708;37.522;2023-02-10T00:27:47;100434.16;;;-1.44;nan
63287;BME280;49410;55.708;37.522;2023-02-10T00:30:12;100438.50;;;-1.41;nan
63287;BME280;49410;55.708;37.522;2023-02-10T00:32:38;100417.31;;;-1.47;nan
63287;BME280;49410;55.708;37.522;2023-02-10T00:35:06;100415.50;;;-1.47;nan
63287;BME280;49410;55.708;37.522;2023-02-10T00:37:32;100411.31;;;-1.52;nan
63287;BME280;49410;55.708;37.522;2023-02-10T00:39:58;100408.94;;;-1.59;nan
63287;BME280;49410;55.708;37.522;2023-02-10T00:42:23;100407.03;;;-1.57;nan
63287;BME280;49410;55.708;37.522;2023-02-10T00:44:49;100422.06;;;-1.52;nan
63287;BME280;49410;55.708;37.522;2023-02-10T00:47:14;100400.00;;;-1.59;nan
63287;BME280;49410;55.708;37.522;2023-02-10T00:49:40;100408.88;;;-1.57;nan
63287;BME280;49410;55.708;37.522;2023-02-10T00:52:05;100402.47;;;-1.54;nan
63287;BME280;49410;55.708;37.522;2023-02-10T00:54:31;100389.97;;;-1.73;nan
63287;BME280;49410;55.708;37.522;2023-02-10T00:56:56;100383.50;;;-1.69;nan
63287;BME280;49410;55.708;37.522;2023-02-10T00:59:22;100397.09;;;-1.54;nan
63287;BME280;49410;55.708;37.522;2023-02-10T01:01:47;100399.66;;;-1.51;nan
63287;BME280;49410;55.708;37.522;2023-02-10T01:04:13;100384.63;;;-1.56;nan
63287;BME280;49410;55.708;37.522;2023-02-10T01:06:38;100368.63;;;-1.57;nan
63287;BME280;49410;55.708;37.522;2023-02-10T01:09:04;100374.47;;;-1.49;nan
63287;BME280;49410;55.708;37.522;2023-02-10T01:11:29;100376.22;;;-1.48;nan
63287;BME280;49410;55.708;37.522;2023-02-10T01:13:55;100344.94;;;-1.66;nan
63287;BME280;49410;55.708;37.522;2023-02-10T01:16:21;100358.84;;;-1.58;nan
63287;BME280;49410;55.708;37.522;2023-02-10T01:18:46;100366.50;;;-1.50;nan
63287;BME280;49410;55.708;37.522;2023-02-10T01:21:15;100349.34;;;-1.65;nan
63287;BME280;49410;55.708;37.522;2023-02-10T01:23:40;100345.97;;;-1.69;nan
63287;BME280;49410;55.708;37.522;2023-02-10T01:26:08;100351.31;;;-1.69;nan
63287;BME280;49410;55.708;37.522;2023-02-10T01:28:35;100338.97;;;-1.91;nan
63287;BME280;49410;55.708;37.522;2023-02-10T01:31:08;100331.88;;;-1.92;nan
63287;BME280;49410;55.708;37.522;2023-02-10T01:33:34;100325.16;;;-1.83;nan
63287;BME280;49410;55.708;37.522;2023-02-10T01:36:03;100329.53;;;-1.80;nan
63287;BME280;49410;55.708;37.522;2023-02-10T01:38:30;100308.31;;;-2.04;nan
63287;BME280;49410;55.708;37.522;2023-02-10T01:40:55;100323.72;;;-1.90;nan
63287;BME280;49410;55.708;37.522;2023-02-10T01:43:20;100322.88;;;-1.91;nan
63287;BME280;49410;55.708;37.522;2023-02-10T01:45:46;100304.34;;;-1.95;nan
63287;BME280;49410;55.708;37.522;2023-02-10T01:48:13;100309.69;;;-1.95;nan
63287;BME280;49410;55.708;37.522;2023-02-10T01:50:52;100325.47;;;-1.89;nan
63287;BME280;49410;55.708;37.522;2023-02-10T01:53:20;100298.75;;;-1.91;nan
63287;BME280;49410;55.708;37.522;2023-02-10T01:55:49;100302.50;;;-1.95;nan
63287;BME280;49410;55.708;37.522;2023-02-10T01:58:18;100292.81;;;-1.97;nan
63287;BME280;49410;55.708;37.522;2023-02-10T02:00:45;100301.34;;;-1.89;nan
63287;BME280;49410;55.708;37.522;2023-02-10T02:03:11;100302.22;;;-1.89;nan
63287;BME280;49410;55.708;37.522;2023-02-10T02:05:39;100311.44;;;-1.94;nan
63287;BME280;49410;55.708;37.522;2023-02-10T02:08:24;100306.66;;;-2.07;nan
63287;BME280;49410;55.708;37.522;2023-02-10T02:11:01;100306.53;;;-2.04;nan
63287;BME280;49410;55.708;37.522;2023-02-10T02:13:38;100287.19;;;-2.10;nan
63287;BME280;49410;55.708;37.522;2023-02-10T02:16:26;100273.13;;;-2.15;nan
63287;BME280;49410;55.708;37.522;2023-02-10T02:22:30;100286.97;;;-2.06;nan
63287;BME280;49410;55.708;37.522;2023-02-10T02:33:37;100272.63;;;-2.05;nan
63287;BME280;49410;55.708;37.522;2023-02-10T02:36:25;100258.00;;;-2.16;nan
63287;BME280;49410;55.708;37.522;2023-02-10T02:38:58;100246.19;;;-2.12;nan
63287;BME280;49410;55.708;37.522;2023-02-10T02:41:28;100230.38;;;-2.19;nan
63287;BME280;49410;55.708;37.522;2023-02-10T02:43:54;100242.78;;;-2.16;nan
63287;BME280;49410;55.708;37.522;2023-02-10T02:46:52;100250.44;;;-2.08;nan
63287;BME280;49410;55.708;37.522;2023-02-10T02:49:34;100240.44;;;-2.05;nan
63287;BME280;49410;55.708;37.522;2023-02-10T02:52:17;100221.91;;;-2.09;nan
63287;BME280;49410;55.708;37.522;2023-02-10T02:58:11;100225.53;;;-2.10;nan
63287;BME280;49410;55.708;37.522;2023-02-10T03:00:36;100223.25;;;-2.00;nan
63287;BME280;49410;55.708;37.522;2023-02-10T03:03:04;100214.03;;;-2.12;nan
63287;BME280;49410;55.708;37.522;2023-02-10T03:05:31;100197.94;;;-2.12;nan
63287;BME280;49410;55.708;37.522;2023-02-10T03:07:57;100205.66;;;-2.06;nan
63287;BME280;49410;55.708;37.522;2023-02-10T03:10:23;100209.47;;;-2.10;nan
63287;BME280;49410;55.708;37.522;2023-02-10T03:12:49;100202.69;;;-2.37;nan
63287;BME280;49410;55.708;37.522;2023-02-10T03:15:16;100196.81;;;-2.26;nan
63287;BME280;49410;55.708;37.522;2023-02-10T03:17:42;100196.66;;;-2.23;nan
63287;BME280;49410;55.708;37.522;2023-02-10T03:20:07;100200.28;;;-2.24;nan
63287;BME280;49410;55.708;37.522;2023-02-10T03:22:33;100175.44;;;-2.45;nan
63287;BME280;49410;55.708;37.522;2023-02-10T03:24:58;100180.09;;;-2.31;nan
63287;BME280;49410;55.708;37.522;2023-02-10T03:27:24;100169.09;;;-2.44;nan
63287;BME280;49410;55.708;37.522;2023-02-10T03:29:49;100168.81;;;-2.38;nan
63287;BME280;49410;55.708;37.522;2023-02-10T03:32:16;100150.84;;;-2.36;nan
63287;BME280;49410;55.708;37.522;2023-02-10T03:34:41;100153.13;;;-2.28;nan
63287;BME280;49410;55.708;37.522;2023-02-10T03:37:07;100151.09;;;-2.23;nan
63287;BME280;49410;55.708;37.522;2023-02-10T03:39:32;100142.03;;;-2.20;nan
63287;BME280;49410;55.708;37.522;2023-02-10T03:41:58;100140.78;;;-2.13;nan
63287;BME280;49410;55.708;37.522;2023-02-10T03:44:23;100137.25;;;-2.13;nan
63287;BME280;49410;55.708;37.522;2023-02-10T03:46:49;100138.50;;;-2.21;nan
63287;BME280;49410;55.708;37.522;2023-02-10T03:49:14;100124.69;;;-2.30;nan
63287;BME280;49410;55.708;37.522;2023-02-10T03:51:40;100126.59;;;-2.15;nan
63287;BME280;49410;55.708;37.522;2023-02-10T03:54:05;100124.78;;;-2.14;nan
63287;BME280;49410;55.708;37.522;2023-02-10T03:56:30;100117.06;;;-2.21;nan
63287;BME280;49410;55.708;37.522;2023-02-10T03:58:56;100107.34;;;-2.23;nan
63287;BME280;49410;55.708;37.522;2023-02-10T04:01:21;100106.25;;;-2.19;nan
63287;BME280;49410;55.708;37.522;2023-02-10T04:03:47;100104.75;;;-2.25;nan
63287;BME280;49410;55.708;37.522;2023-02-10T04:06:12;100100.81;;;-2.17;nan
63287;BME280;49410;55.708;37.522;2023-02-10T04:08:38;100101.03;;;-2.22;nan
63287;BME280;49410;55.708;37.522;2023-02-10T04:11:04;100100.34;;;-2.26;nan
63287;BME280;49410;55.708;37.522;2023-02-10T04:13:30;100085.66;;;-2.36;nan
63287;BME280;49410;55.708;37.522;2023-02-10T04:16:08;100096.00;;;-2.28;nan
63287;BME280;49410;55.708;37.522;2023-02-10T04:18:34;100090.41;;;-2.41;nan
63287;BME280;49410;55.708;37.522;2023-02-10T04:21:02;100100.94;;;-2.38;nan
63287;BME280;49410;55.708;37.522;2023-02-10T04:23:28;100074.63;;;-2.47;nan
63287;BME280;49410;55.708;37.522;2023-02-10T04:25:54;100080.56;;;-2.41;nan
63287;BME280;49410;55.708;37.522;2023-02-10T04:28:19;100090.41;;;-2.41;nan
63287;BME280;49410;55.708;37.522;2023-02-10T04:30:45;100075.50;;;-2.47;nan
63287;BME280;49410;55.708;37.522;2023-02-10T04:33:10;100081.66;;;-2.45;nan
63287;BME280;49410;55.708;37.522;2023-02-10T04:35:36;100063.44;;;-2.56;nan
63287;BME280;49410;55.708;37.522;2023-02-10T04:38:01;100069.59;;;-2.54;nan
63287;BME280;49410;55.708;37.522;2023-02-10T04:40:29;100044.06;;;-2.61;nan
63287;BME280;49410;55.708;37.522;2023-02-10T04:42:55;100041.31;;;-2.59;nan
63287;BME280;49410;55.708;37.522;2023-02-10T04:45:20;100062.25;;;-2.50;nan
63287;BME280;49410;55.708;37.522;2023-02-10T04:47:45;100050.06;;;-2.56;nan
63287;BME280;49410;55.708;37.522;2023-02-10T04:50:11;100067.84;;;-2.55;nan
63287;BME280;49410;55.708;37.522;2023-02-10T04:52:37;100043.41;;;-2.66;nan
63287;BME280;49410;55.708;37.522;2023-02-10T04:55:02;100071.22;;;-2.69;nan
63287;BME280;49410;55.708;37.522;2023-02-10T04:57:28;100056.66;;;-2.81;nan
63287;BME280;49410;55.708;37.522;2023-02-10T04:59:53;100062.25;;;-2.68;nan
63287;BME280;49410;55.708;37.522;2023-02-10T05:02:19;100059.88;;;-2.74;nan
63287;BME280;49410;55.708;37.522;2023-02-10T05:04:44;100062.31;;;-2.69;nan
63287;BME280;49410;55.708;37.522;2023-02-10T05:07:09;100059.25;;;-2.61;nan
63287;BME280;49410;55.708;37.522;2023-02-10T05:09:35;100047.69;;;-2.62;nan
63287;BME280;49410;55.708;37.522;2023-02-10T05:12:00;100050.44;;;-2.63;nan
63287;BME280;49410;55.708;37.522;2023-02-10T05:14:26;100045.41;;;-2.70;nan
63287;BME280;49410;55.708;37.522;2023-02-10T05:16:51;100045.16;;;-2.65;nan
63287;BME280;49410;55.708;37.522;2023-02-10T05:19:17;100029.00;;;-2.81;nan
63287;BME280;49410;55.708;37.522;2023-02-10T05:21:42;100046.91;;;-2.64;nan
63287;BME280;49410;55.708;37.522;2023-02-10T05:24:07;100045.00;;;-2.62;nan
63287;BME280;49410;55.708;37.522;2023-02-10T05:26:33;100038.94;;;-2.66;nan
63287;BME280;49410;55.708;37.522;2023-02-10T05:28:58;100049.34;;;-2.59;nan
63287;BME280;49410;55.708;37.522;2023-02-10T05:31:24;100038.88;;;-2.64;nan
63287;BME280;49410;55.708;37.522;2023-02-10T05:33:49;100019.81;;;-2.94;nan
63287;BME280;49410;55.708;37.522;2023-02-10T05:36:14;100026.41;;;-2.83;nan
63287;BME280;49410;55.708;37.522;2023-02-10T05:38:40;100023.50;;;-2.78;nan
63287;BME280;49410;55.708;37.522;2023-02-10T05:41:25;100014.56;;;-2.78;nan
63287;BME280;49410;55.708;37.522;2023-02-10T05:43:51;100015.47;;;-2.78;nan
63287;BME280;49410;55.708;37.522;2023-02-10T05:46:16;99982.34;;;-2.94;nan
63287;BME280;49410;55.708;37.522;2023-02-10T05:48:41;100009.72;;;-2.70;nan
63287;BME280;49410;55.708;37.522;2023-02-10T05:51:07;100004.75;;;-2.78;nan
63287;BME280;49410;55.708;37.522;2023-02-10T05:53:32;100016.16;;;-2.74;nan
63287;BME280;49410;55.708;37.522;2023-02-10T05:55:58;100013.72;;;-2.79;nan
63287;BME280;49410;55.708;37.522;2023-02-10T05:58:23;100010.81;;;-2.74;nan
63287;BME280;49410;55.708;37.522;2023-02-10T06:00:48;100014.41;;;-2.93;nan
63287;BME280;49410;55.708;37.522;2023-02-10T06:03:14;99994.09;;;-2.97;nan
63287;BME280;49410;55.708;37.522;2023-02-10T06:05:39;99985.91;;;-2.94;nan
63287;BME280;49410;55.708;37.522;2023-02-10T06:08:05;99991.41;;;-2.97;nan
63287;BME280;49410;55.708;37.522;2023-02-10T06:10:30;99964.53;;;-3.13;nan
63287;BME280;49410;55.708;37.522;2023-02-10T06:12:55;99975.91;;;-3.08;nan
63287;BME280;49410;55.708;37.522;2023-02-10T06:15:21;99984.88;;;-3.09;nan
63287;BME280;49410;55.708;37.522;2023-02-10T06:17:46;99985.25;;;-2.99;nan
63287;BME280;49410;55.708;37.522;2023-02-10T06:20:12;99985.34;;;-3.01;nan
63287;BME280;49410;55.708;37.522;2023-02-10T06:22:37;99973.72;;;-3.00;nan
63287;BME280;49410;55.708;37.522;2023-02-10T06:25:03;99961.63;;;-3.08;nan
63287;BME280;49410;55.708;37.522;2023-02-10T06:27:28;99963.59;;;-3.12;nan
63287;BME280;49410;55.708;37.522;2023-02-10T06:29:54;99940.78;;;-3.19;nan
63287;BME280;49410;55.708;37.522;2023-02-10T06:32:22;99948.13;;;-3.05;nan
63287;BME280;49410;55.708;37.522;2023-02-10T06:34:51;99948.44;;;-3.12;nan
63287;BME280;49410;55.708;37.522;2023-02-10T06:37:17;99946.16;;;-3.02;nan
63287;BME280;49410;55.708;37.522;2023-02-10T06:40:02;99929.53;;;-3.08;nan
63287;BME280;49410;55.708;37.522;2023-02-10T06:42:27;99936.72;;;-2.91;nan
63287;BME280;49410;55.708;37.522;2023-02-10T06:44:56;99916.00;;;-2.88;nan
63287;BME280;49410;55.708;37.522;2023-02-10T06:47:21;99914.56;;;-2.77;nan
63287;BME280;49410;55.708;37.522;2023-02-10T06:49:47;99891.66;;;-2.83;nan
63287;BME280;49410;55.708;37.522;2023-02-10T06:55:21;99859.31;;;-2.96;nan
63287;BME280;49410;55.708;37.522;2023-02-10T06:57:47;99877.59;;;-2.87;nan
63287;BME280;49410;55.708;37.522;2023-02-10T07:00:13;99880.91;;;-2.82;nan
63287;BME280;49410;55.708;37.522;2023-02-10T07:02:39;99854.91;;;-2.97;nan
63287;BME280;49410;55.708;37.522;2023-02-10T07:05:06;99839.72;;;-3.14;nan
63287;BME280;49410;55.708;37.522;2023-02-10T07:07:34;99845.84;;;-2.94;nan
63287;BME280;49410;55.708;37.522;2023-02-10T07:10:00;99841.75;;;-2.67;nan
63287;BME280;49410;55.708;37.522;2023-02-10T07:12:26;99832.06;;;-2.53;nan
63287;BME280;49410;55.708;37.522;2023-02-10T07:14:52;99812.38;;;-2.52;nan
63287;BME280;49410;55.708;37.522;2023-02-10T07:17:17;99778.88;;;-2.43;nan
63287;BME280;49410;55.708;37.522;2023-02-10T07:19:43;99788.03;;;-2.15;nan
63287;BME280;49410;55.708;37.522;2023-02-10T07:22:08;99817.78;;;-2.20;nan
63287;BME280;49410;55.708;37.522;2023-02-10T07:24:34;99794.28;;;-2.31;nan
63287;BME280;49410;55.708;37.522;2023-02-10T07:26:59;99809.47;;;-2.15;nan
63287;BME280;49410;55.708;37.522;2023-02-10T07:29:25;99786.84;;;-2.10;nan
63287;BME280;49410;55.708;37.522;2023-02-10T07:31:51;99798.06;;;-2.03;nan
63287;BME280;49410;55.708;37.522;2023-02-10T07:34:16;99791.31;;;-1.78;nan
63287;BME280;49410;55.708;37.522;2023-02-10T07:36:45;99781.81;;;-1.84;nan
63287;BME280;49410;55.708;37.522;2023-02-10T07:39:10;99770.19;;;-1.68;nan
63287;BME280;49410;55.708;37.522;2023-02-10T07:41:36;99781.38;;;-1.46;nan
63287;BME280;49410;55.708;37.522;2023-02-10T07:44:02;99776.03;;;-1.31;nan
63287;BME280;49410;55.708;37.522;2023-02-10T07:46:27;99750.84;;;-1.29;nan
63287;BME280;49410;55.708;37.522;2023-02-10T07:48:53;99773.13;;;-0.83;nan
63287;BME280;49410;55.708;37.522;2023-02-10T07:51:18;99766.72;;;-0.52;nan
63287;BME280;49410;55.708;37.522;2023-02-10T07:53:44;99749.25;;;-0.44;nan
63287;BME280;49410;55.708;37.522;2023-02-10T07:56:09;99769.44;;;-0.24;nan
63287;BME280;49410;55.708;37.522;2023-02-10T07:58:36;99769.56;;;-0.26;nan
63287;BME280;49410;55.708;37.522;2023-02-10T08:01:07;99760.75;;;-0.42;nan
63287;BME280;49410;55.708;37.522;2023-02-10T08:03:33;99757.19;;;-0.43;nan
63287;BME280;49410;55.708;37.522;2023-02-10T08:05:58;99754.22;;;-0.38;nan
63287;BME280;49410;55.708;37.522;2023-02-10T08:08:24;99759.41;;;-0.35;nan
63287;BME280;49410;55.708;37.522;2023-02-10T08:10:50;99760.75;;;-0.42;nan
63287;BME280;49410;55.708;37.522;2023-02-10T08:13:15;99746.75;;;-0.48;nan
63287;BME280;49410;55.708;37.522;2023-02-10T08:15:41;99746.75;;;-0.48;nan
63287;BME280;49410;55.708;37.522;2023-02-10T08:18:06;99748.00;;;-0.53;nan
63287;BME280;49410;55.708;37.522;2023-02-10T08:20:32;99748.75;;;-0.51;nan
63287;BME280;49410;55.708;37.522;2023-02-10T08:22:57;99761.06;;;-0.47;nan
63287;BME280;49410;55.708;37.522;2023-02-10T08:25:26;99752.88;;;-0.60;nan
63287;BME280;49410;55.708;37.522;2023-02-10T08:27:52;99746.47;;;-0.57;nan
63287;BME280;49410;55.708;37.522;2023-02-10T08:30:18;99743.69;;;-0.70;nan
63287;BME280;49410;55.708;37.522;2023-02-10T08:32:43;99746.38;;;-0.56;nan
63287;BME280;49410;55.708;37.522;2023-02-10T08:35:09;99737.25;;;-0.53;nan
63287;BME280;49410;55.708;37.522;2023-02-10T08:37:35;99731.75;;;-0.37;nan
63287;BME280;49410;55.708;37.522;2023-02-10T08:40:01;99711.25;;;-0.25;nan
63287;BME280;49410;55.708;37.522;2023-02-10T08:42:29;99723.53;;;-0.07;nan
63287;BME280;49410;55.708;37.522;2023-02-10T08:44:54;99721.94;;;0.04;nan
63287;BME280;49410;55.708;37.522;2023-02-10T08:47:20;99711.06;;;0.05;nan
63287;BME280;49410;55.708;37.522;2023-02-10T08:49:45;99684.03;;;-0.06;nan
63287;BME280;49410;55.708;37.522;2023-02-10T08:52:11;99688.94;;;0.14;nan
63287;BME280;49410;55.708;37.522;2023-02-10T08:54:36;99693.31;;;0.43;nan
63287;BME280;49410;55.708;37.522;2023-02-10T08:57:02;99690.09;;;0.51;nan
63287;BME280;49410;55.708;37.522;2023-02-10T08:59:27;99673.53;;;0.57;nan
63287;BME280;49410;55.708;37.522;2023-02-10T09:01:53;99645.53;;;0.59;nan
63287;BME280;49410;55.708;37.522;2023-02-10T09:04:20;99648.88;;;0.76;nan
63287;BME280;49410;55.708;37.522;2023-02-10T09:06:45;99661.03;;;0.82;nan
63287;BME280;49410;55.708;37.522;2023-02-10T09:09:17;99641.66;;;0.76;nan
63287;BME280;49410;55.708;37.522;2023-02-10T09:11:45;99641.97;;;0.46;nan
63287;BME280;49410;55.708;37.522;2023-02-10T09:14:11;99650.19;;;0.70;nan
63287;BME280;49410;55.708;37.522;2023-02-10T09:16:37;99630.47;;;0.57;nan
63287;BME280;49410;55.708;37.522;2023-02-10T09:19:02;99616.69;;;0.61;nan
63287;BME280;49410;55.708;37.522;2023-02-10T09:21:29;99626.59;;;0.61;nan
63287;BME280;49410;55.708;37.522;2023-02-10T09:23:55;99619.16;;;0.65;nan
63287;BME280;49410;55.708;37.522;2023-02-10T09:26:20;99595.47;;;0.31;nan
63287;BME280;49410;55.708;37.522;2023-02-10T09:28:46;99610.09;;;0.40;nan
63287;BME280;49410;55.708;37.522;2023-02-10T09:31:12;99584.38;;;0.10;nan
63287;BME280;49410;55.708;37.522;2023-02-10T09:33:39;99575.56;;;0.34;nan
63287;BME280;49410;55.708;37.522;2023-02-10T09:36:06;99557.59;;;0.08;nan
63287;BME280;49410;55.708;37.522;2023-02-10T09:38:32;99557.59;;;0.08;nan
63287;BME280;49410;55.708;37.522;2023-02-10T09:41:39;99565.09;;;0.16;nan
63287;BME280;49410;55.708;37.522;2023-02-10T09:44:17;99567.91;;;0.14;nan
63287;BME280;49410;55.708;37.522;2023-02-10T09:55:33;99600.94;;;0.17;nan
63287;BME280;49410;55.708;37.522;2023-02-10T10:00:39;99609.16;;;0.28;nan
63287;BME280;49410;55.708;37.522;2023-02-10T10:03:07;99592.44;;;0.36;nan
63287;BME280;49410;55.708;37.522;2023-02-10T10:06:00;99594.09;;;0.38;nan
63287;BME280;49410;55.708;37.522;2023-02-10T10:14:17;99591.06;;;0.56;nan
63287;BME280;49410;55.708;37.522;2023-02-10T10:30:38;99527.25;;;0.45;nan
63287;BME280;49410;55.708;37.522;2023-02-10T10:33:26;99541.00;;;0.53;nan
63287;BME280;49410;55.708;37.522;2023-02-10T10:35:54;99524.22;;;0.50;nan
63287;BME280;49410;55.708;37.522;2023-02-10T10:38:28;99518.19;;;0.46;nan
63287;BME280;49410;55.708;37.522;2023-02-10T10:40:57;99503.25;;;0.42;nan
63287;BME280;49410;55.708;37.522;2023-02-10T10:43:30;99501.41;;;0.55;nan
63287;BME280;49410;55.708;37.522;2023-02-10T10:46:02;99513.94;;;0.68;nan
63287;BME280;49410;55.708;37.522;2023-02-10T10:48:30;99498.72;;;0.55;nan
63287;BME280;49410;55.708;37.522;2023-02-10T10:51:02;99481.81;;;0.53;nan
63287;BME280;49410;55.708;37.522;2023-02-10T10:53:47;99488.88;;;0.67;nan
63287;BME280;49410;55.708;37.522;2023-02-10T10:56:15;99486.94;;;0.69;nan
63287;BME280;49410;55.708;37.522;2023-02-10T10:58:44;99469.53;;;0.49;nan
63287;BME280;49410;55.708;37.522;2023-02-10T11:01:13;99481.97;;;0.63;nan
63287;BME280;49410;55.708;37.522;2023-02-10T11:03:38;99463.63;;;0.44;nan
63287;BME280;49410;55.708;37.522;2023-02-10T11:06:08;99467.16;;;0.44;nan
63287;BME280;49410;55.708;37.522;2023-02-10T11:08:37;99480.22;;;0.51;nan
63287;BME280;49410;55.708;37.522;2023-02-10T11:11:09;99470.63;;;0.46;nan
63287;BME280;49410;55.708;37.522;2023-02-10T11:13:38;99473.53;;;0.43;nan
63287;BME280;49410;55.708;37.522;2023-02-10T11:16:11;99445.84;;;0.41;nan
63287;BME280;49410;55.708;37.522;2023-02-10T11:21:18;99446.81;;;0.53;nan
63287;BME280;49410;55.708;37.522;2023-02-10T11:23:53;99434.03;;;0.44;nan
63287;BME280;49410;55.708;37.522;2023-02-10T11:26:21;99434.13;;;0.42;nan
63287;BME280;49410;55.708;37.522;2023-02-10T11:28:48;99445.31;;;0.49;nan
63287;BME280;49410;55.708;37.522;2023-02-10T11:33:55;99432.41;;;0.41;nan
63287;BME280;49410;55.708;37.522;2023-02-10T11:36:38;99431.00;;;0.49;nan
63287;BME280;49410;55.708;37.522;2023-02-10T11:39:15;99438.97;;;0.50;nan
63287;BME280;49410;55.708;37.522;2023-02-10T11:41:41;99431.63;;;0.52;nan
63287;BME280;49410;55.708;37.522;2023-02-10T11:47:15;99415.97;;;0.33;nan
63287;BME280;49410;55.708;37.522;2023-02-10T11:49:44;99397.69;;;0.38;nan
63287;BME280;49410;55.708;37.522;2023-02-10T11:52:10;99404.19;;;0.47;nan
63287;BME280;49410;55.708;37.522;2023-02-10T11:54:36;99394.66;;;0.43;nan
63287;BME280;49410;55.708;37.522;2023-02-10T12:05:22;99359.53;;;0.20;nan
63287;BME280;49410;55.708;37.522;2023-02-10T12:08:07;99393.34;;;0.36;nan
63287;BME280;49410;55.708;37.522;2023-02-10T12:13:18;99374.09;;;0.42;nan
63287;BME280;49410;55.708;37.522;2023-02-10T12:27:04;99342.63;;;0.18;nan
63287;BME280;49410;55.708;37.522;2023-02-10T12:29:53;99361.75;;;0.26;nan
63287;BME280;49410;55.708;37.522;2023-02-10T12:38:41;99338.13;;;0.19;nan
63287;BME280;49410;55.708;37.522;2023-02-10T12:46:53;99347.97;;;-0.06;nan
63287;BME280;49410;55.708;37.522;2023-02-10T12:54:55;99356.16;;;-0.34;nan
63287;BME280;49410;55.708;37.522;2023-02-10T12:57:37;99367.91;;;-0.22;nan
63287;BME280;49410;55.708;37.522;2023-02-10T13:00:13;99363.38;;;-0.21;nan
63287;BME280;49410;55.708;37.522;2023-02-10T13:02:48;99348.53;;;-0.27;nan
63287;BME280;49410;55.708;37.522;2023-02-10T13:05:20;99334.47;;;-0.30;nan
63287;BME280;49410;55.708;37.522;2023-02-10T13:07:53;99326.94;;;-0.38;nan
63287;BME280;49410;55.708;37.522;2023-02-10T13:13:02;99336.63;;;-0.36;nan
63287;BME280;49410;55.708;37.522;2023-02-10T13:15:46;99335.13;;;-0.40;nan
63287;BME280;49410;55.708;37.522;2023-02-10T13:21:15;99324.38;;;-0.53;nan
63287;BME280;49410;55.708;37.522;2023-02-10T13:23:44;99288.81;;;-0.82;nan
63287;BME280;49410;55.708;37.522;2023-02-10T13:26:41;99313.97;;;-0.57;nan
63287;BME280;49410;55.708;37.522;2023-02-10T13:32:33;99307.94;;;-0.74;nan
63287;BME280;49410;55.708;37.522;2023-02-10T13:38:19;99313.84;;;-0.82;nan
63287;BME280;49410;55.708;37.522;2023-02-10T13:43:34;99339.94;;;-0.71;nan
63287;BME280;49410;55.708;37.522;2023-02-10T13:46:01;99326.28;;;-0.81;nan
63287;BME280;49410;55.708;37.522;2023-02-10T13:48:31;99333.19;;;-0.76;nan
63287;BME280;49410;55.708;37.522;2023-02-10T13:51:07;99319.88;;;-0.78;nan
63287;BME280;49410;55.708;37.522;2023-02-10T13:58:51;99340.16;;;-0.74;nan
63287;BME280;49410;55.708;37.522;2023-02-10T14:04:49;99343.28;;;-0.80;nan
63287;BME280;49410;55.708;37.522;2023-02-10T14:06:50;99318.56;;;-0.85;nan
63287;BME280;49410;55.708;37.522;2023-02-10T14:09:36;99320.72;;;-0.90;nan
63287;BME280;49410;55.708;37.522;2023-02-10T14:12:22;99315.03;;;-0.99;nan
63287;BME280;49410;55.708;37.522;2023-02-10T14:14:48;99310.16;;;-1.06;nan
63287;BME280;49410;55.708;37.522;2023-02-10T14:17:21;99315.53;;;-1.06;nan
63287;BME280;49410;55.708;37.522;2023-02-10T14:19:51;99315.53;;;-1.06;nan
63287;BME280;49410;55.708;37.522;2023-02-10T14:22:23;99320.38;;;-0.99;nan
63287;BME280;49410;55.708;37.522;2023-02-10T14:24:50;99283.00;;;-1.15;nan
63287;BME280;49410;55.708;37.522;2023-02-10T14:27:17;99298.28;;;-1.02;nan
63287;BME280;49410;55.708;37.522;2023-02-10T14:29:52;99305.25;;;-0.87;nan
63287;BME280;49410;55.708;37.522;2023-02-10T14:32:19;99291.81;;;-0.87;nan
63287;BME280;49410;55.708;37.522;2023-02-10T14:34:59;99298.47;;;-0.92;nan
63287;BME280;49410;55.708;37.522;2023-02-10T14:37:25;99319.88;;;-0.78;nan
63287;BME280;49410;55.708;37.522;2023-02-10T14:39:56;99296.34;;;-0.87;nan
63287;BME280;49410;55.708;37.522;2023-02-10T14:42:25;99334.59;;;-0.84;nan
63287;BME280;49410;55.708;37.522;2023-02-10T14:44:53;99329.41;;;-0.87;nan
63287;BME280;49410;55.708;37.522;2023-02-10T14:47:29;99292.13;;;-1.04;nan
63287;BME280;49410;55.708;37.522;2023-02-10T14:49:56;99311.25;;;-0.83;nan
63287;BME280;49410;55.708;37.522;2023-02-10T14:52:26;99315.97;;;-0.74;nan
63287;BME280;49410;55.708;37.522;2023-02-10T14:54:52;99307.16;;;-0.76;nan
63287;BME280;49410;55.708;37.522;2023-02-10T14:57:20;99308.56;;;-0.70;nan
63287;BME280;49410;55.708;37.522;2023-02-10T14:59:59;99320.06;;;-0.68;nan
63287;BME280;49410;55.708;37.522;2023-02-10T15:02:27;99316.31;;;-0.79;nan
63287;BME280;49410;55.708;37.522;2023-02-10T15:04:59;99328.13;;;-0.81;nan
63287;BME280;49410;55.708;37.522;2023-02-10T15:07:33;99312.88;;;-0.81;nan
63287;BME280;49410;55.708;37.522;2023-02-10T15:12:44;99313.72;;;-0.67;nan
63287;BME280;49410;55.708;37.522;2023-02-10T15:17:47;99326.19;;;-0.79;nan
63287;BME280;49410;55.708;37.522;2023-02-10T15:22:41;99316.44;;;-0.80;nan